Rich Fountain, Missouri
Current Conditions -  °F | °C
As of 3:53 AM on Friday 31 Oct 2014 (Local Time) from KVIH Reporting Station
Haze Haze  
Wind Chill: 38°   Ceiling: Unl
Heat Index: 43°   Visibility: 6mi
Dew Point: 42°   Wind: 8mph
Humidity: 97%   Direction: 340°NNW
Pressure: 30.11"   Gusts: NA
Location:  38.3614°N, 91.929°W
Report Text: KVIH 310853Z AUTO 34007KT 6SM BR SCT080 06/06 A3011 RMK AO2 SLP198 T00610056 53014
Loading
Personal Weather Stations






























Interactive Weather Map
Tropical Storm Tracking
New forecast layout! Learn more

10-Day Weather Forecast

Advertisements
Track Severe Weather on mobile